createdAt,value
2022-11-25T00:05:29.200Z,6.46
2022-11-25T00:11:52.237Z,6.43
2022-11-25T00:18:12.241Z,6.4
2022-11-25T00:24:35.469Z,6.38
2022-11-25T00:30:55.167Z,6.38
2022-11-25T00:37:18.291Z,6.33
2022-11-25T00:43:38.168Z,6.27
2022-11-25T00:50:01.206Z,6.21
2022-11-25T00:56:21.262Z,6.21
2022-11-25T01:02:44.254Z,6.29
2022-11-25T01:09:04.196Z,6.41
2022-11-25T01:15:27.267Z,6.51
2022-11-25T01:21:47.177Z,6.6
2022-11-25T01:28:10.205Z,6.68
2022-11-25T01:34:30.184Z,6.72
2022-11-25T01:40:53.209Z,6.78
2022-11-25T01:47:13.208Z,6.86
2022-11-25T01:53:36.166Z,6.94
2022-11-25T01:59:56.152Z,7.01
2022-11-25T02:06:19.177Z,7.08
2022-11-25T02:12:39.204Z,7.15
2022-11-25T02:19:02.156Z,7.22
2022-11-25T02:25:22.253Z,7.29
2022-11-25T02:31:45.264Z,7.36
2022-11-25T02:38:05.229Z,7.43
2022-11-25T02:44:28.165Z,7.48
2022-11-25T02:50:48.215Z,7.52
2022-11-25T02:57:11.201Z,7.55
2022-11-25T03:03:31.204Z,7.58
2022-11-25T03:09:54.190Z,7.58
2022-11-25T03:16:14.289Z,7.57
2022-11-25T03:22:37.208Z,7.54
2022-11-25T03:28:57.199Z,7.54
2022-11-25T03:35:20.184Z,7.59
2022-11-25T03:41:40.193Z,7.64
2022-11-25T03:48:03.180Z,7.72
2022-11-25T03:54:23.200Z,7.8
2022-11-25T04:00:46.180Z,7.85
2022-11-25T04:07:06.236Z,7.89
2022-11-25T04:13:29.175Z,7.89
2022-11-25T04:19:49.178Z,7.89
2022-11-25T04:37:23.079Z,7.92
2022-11-25T04:43:43.149Z,7.94
2022-11-25T04:50:06.172Z,7.95
2022-11-25T04:56:26.217Z,7.95
2022-11-25T05:02:49.189Z,7.92
2022-11-25T05:09:09.189Z,7.88
2022-11-25T05:15:32.172Z,7.84
2022-11-25T05:21:52.228Z,7.8
2022-11-25T05:28:15.220Z,7.77
2022-11-25T05:34:35.524Z,7.72
2022-11-25T05:40:58.271Z,7.68
2022-11-25T05:47:18.148Z,7.65
2022-11-25T05:53:41.221Z,7.62
2022-11-25T06:00:01.191Z,7.61
2022-11-25T06:06:24.189Z,7.59
2022-11-25T06:12:44.229Z,7.58
2022-11-25T06:19:07.181Z,7.59
2022-11-25T06:25:27.277Z,7.6
2022-11-25T06:31:50.241Z,7.61
2022-11-25T06:38:10.160Z,7.63
2022-11-25T06:44:33.250Z,7.64
2022-11-25T06:50:53.190Z,7.66
2022-11-25T06:57:16.190Z,7.66
2022-11-25T07:03:36.222Z,7.67
2022-11-25T07:09:59.186Z,7.68
2022-11-25T07:16:19.232Z,7.7
2022-11-25T07:22:42.228Z,7.7
2022-11-25T07:29:02.193Z,7.7
2022-11-25T07:35:25.156Z,7.69
2022-11-25T07:41:45.188Z,7.67
2022-11-25T07:48:08.249Z,7.64
2022-11-25T07:54:28.158Z,7.6
2022-11-25T08:00:51.186Z,7.55
2022-11-25T08:07:11.331Z,7.52
2022-11-25T08:13:34.154Z,7.56
2022-11-25T08:19:54.209Z,7.71
2022-11-25T08:26:17.212Z,7.87
2022-11-25T08:32:37.180Z,7.93
2022-11-25T08:39:00.233Z,7.97
2022-11-25T08:45:20.178Z,8.03
2022-11-25T08:51:43.257Z,8.16
2022-11-25T08:58:03.201Z,8.35
2022-11-25T09:04:26.224Z,8.56
2022-11-25T09:10:46.281Z,8.79
2022-11-25T09:17:09.193Z,8.99
2022-11-25T09:23:29.451Z,9.14
2022-11-25T09:29:52.171Z,9.33
2022-11-25T09:52:42.695Z,10.08
2022-11-25T09:59:02.148Z,10.33
2022-11-25T10:05:25.178Z,10.56
2022-11-25T10:11:45.546Z,10.78
2022-11-25T10:18:08.198Z,11
2022-11-25T10:24:28.277Z,11.24
2022-11-25T10:30:51.269Z,11.54
2022-11-25T10:37:11.200Z,11.69
2022-11-25T10:43:34.163Z,11.95
2022-11-25T10:49:54.214Z,12.13
2022-11-25T10:56:17.156Z,12.09
2022-11-25T11:02:37.248Z,12.23
2022-11-25T11:09:00.188Z,12.28
2022-11-25T11:15:20.320Z,12.3
2022-11-25T11:21:43.297Z,12.36
2022-11-25T11:28:03.190Z,12.34
2022-11-25T11:34:26.195Z,12.21
2022-11-25T11:40:46.195Z,12.15
2022-11-25T11:47:09.374Z,12.18
2022-11-25T11:53:29.161Z,12.21
2022-11-25T11:59:52.347Z,12.23
2022-11-25T12:06:12.207Z,12.3
2022-11-25T12:12:35.174Z,12.34
2022-11-25T12:18:55.889Z,12.34
2022-11-25T12:25:18.203Z,12.35
2022-11-25T12:31:38.328Z,12.41
2022-11-25T12:38:01.166Z,12.35
2022-11-25T12:44:21.208Z,12.25
2022-11-25T12:50:44.200Z,12.2
2022-11-25T12:57:04.147Z,12.21
2022-11-25T13:03:27.218Z,12.25
2022-11-25T13:09:47.145Z,12.25
2022-11-25T13:16:10.593Z,12.31
2022-11-25T13:22:30.183Z,12.34
2022-11-25T13:28:53.182Z,12.51
2022-11-25T13:35:13.173Z,12.58
2022-11-25T13:41:36.219Z,12.5
2022-11-25T13:47:56.204Z,12.48
2022-11-25T13:54:19.175Z,12.39
2022-11-25T14:00:39.266Z,12.3
2022-11-25T14:07:02.157Z,12.22
2022-11-25T14:13:22.147Z,12.18
2022-11-25T14:19:52.789Z,12.09
2022-11-25T14:26:11.633Z,12
2022-11-25T14:32:28.190Z,11.91
2022-11-25T14:56:09.118Z,11.84
2022-11-25T15:02:29.201Z,11.74
2022-11-25T15:08:52.181Z,11.65
2022-11-25T15:15:12.172Z,11.52
2022-11-25T15:21:44.459Z,11.39
2022-11-25T15:27:55.188Z,11.27
2022-11-25T15:34:18.183Z,11.12
2022-11-25T15:40:38.175Z,10.95
2022-11-25T15:47:01.157Z,10.81
2022-11-25T15:53:24.219Z,10.76
2022-11-25T15:59:44.234Z,10.77
2022-11-25T16:06:04.178Z,10.79
2022-11-25T16:12:27.200Z,10.79
2022-11-25T16:18:47.186Z,10.8
2022-11-25T16:25:10.158Z,10.8
2022-11-25T16:31:30.243Z,10.77
2022-11-25T16:37:53.213Z,10.74
2022-11-25T16:44:13.203Z,10.71
2022-11-25T16:50:36.245Z,10.69
2022-11-25T16:56:56.171Z,10.67
2022-11-25T17:03:19.266Z,10.65
2022-11-25T17:09:39.506Z,10.64
2022-11-25T17:16:02.344Z,10.63
2022-11-25T17:22:22.206Z,10.57
2022-11-25T17:28:45.198Z,10.51
2022-11-25T17:35:05.170Z,10.44
2022-11-25T17:41:28.160Z,10.36
2022-11-25T17:47:48.303Z,10.3
2022-11-25T17:54:11.181Z,10.26
2022-11-25T18:00:31.186Z,10.22
2022-11-25T18:06:54.286Z,10.18
2022-11-25T18:13:14.173Z,10.15
2022-11-25T18:19:37.257Z,10.14
2022-11-25T18:25:57.197Z,10.13
2022-11-25T18:32:20.248Z,10.1
2022-11-25T18:38:40.220Z,10.09
2022-11-25T18:45:03.208Z,10.07
2022-11-25T18:51:23.193Z,10.06
2022-11-25T18:57:46.234Z,10.04
2022-11-25T19:04:06.197Z,10.02
2022-11-25T19:10:29.214Z,9.98
2022-11-25T19:16:49.188Z,9.91
2022-11-25T19:23:12.233Z,9.84
2022-11-25T19:29:32.187Z,9.79
2022-11-25T19:35:55.188Z,9.75
2022-11-25T19:42:15.204Z,9.71
2022-11-25T19:48:38.161Z,9.69
2022-11-25T19:54:58.179Z,9.65
2022-11-25T20:01:21.234Z,9.6
2022-11-25T20:17:29.279Z,9.47
2022-11-25T20:23:52.147Z,9.46
2022-11-25T20:30:12.191Z,9.44
2022-11-25T20:36:35.285Z,9.42
2022-11-25T20:42:55.175Z,9.37
2022-11-25T20:49:18.276Z,9.33
2022-11-25T20:55:38.185Z,9.22
2022-11-25T21:02:01.339Z,8.97
2022-11-25T21:08:21.242Z,8.68
2022-11-25T21:14:44.208Z,8.44
2022-11-25T21:21:04.211Z,8.17
2022-11-25T21:27:27.154Z,7.93
2022-11-25T21:33:47.218Z,7.76
2022-11-25T21:40:10.222Z,7.69
2022-11-25T21:46:30.317Z,7.66
2022-11-25T21:52:53.356Z,7.68
2022-11-25T21:59:13.216Z,7.8
2022-11-25T22:05:36.191Z,7.95
2022-11-25T22:11:56.203Z,8.08
2022-11-25T22:18:19.165Z,8.07
2022-11-25T22:24:39.412Z,7.98
2022-11-25T22:31:02.186Z,7.91
2022-11-25T22:37:22.208Z,7.76
2022-11-25T22:43:45.201Z,7.62
2022-11-25T22:50:05.188Z,7.51
2022-11-25T22:56:28.210Z,7.47
2022-11-25T23:20:42.189Z,7.41
2022-11-25T23:27:02.209Z,7.3
2022-11-25T23:33:25.162Z,7.2
2022-11-25T23:39:45.205Z,7.09
2022-11-25T23:46:08.290Z,7
2022-11-25T23:52:28.159Z,6.92
2022-11-25T23:58:51.260Z,6.87
